Time;durP1;ratioP1;P1;durP2;ratioP2;P2;SDS_P1;SDS_P2;PMS_P1;PMS_P2;Temp;Humidity;BMP_temperature;BMP_pressure;BME280_temperature;BME280_humidity;BME280_pressure;Samples;Min_cycle;Max_cycle;Signal;HPM_P1;HPM_P2
2021/01/05 00:02:06;;;;;;;24.50;10.13;;;;;;;0.07;86.35;98240.88;5074388;28;20032;-72
2021/01/05 00:04:35;;;;;;;23.17;9.77;;;;;;;0.14;86.27;98252.56;5075811;28;20484;-72
2021/01/05 00:07:04;;;;;;;22.27;9.57;;;;;;;0.17;86.33;98248.78;5074713;28;20028;-72
2021/01/05 00:09:29;;;;;;;24.90;9.65;;;;;;;0.07;85.70;98224.06;5074496;28;20112;-72
2021/01/05 00:11:59;;;;;;;22.92;9.48;;;;;;;0.17;86.19;98233.66;5074030;28;20059;-72
2021/01/05 00:14:25;;;;;;;25.08;9.90;;;;;;;0.23;86.25;98237.53;5074703;28;20543;-72
2021/01/05 00:16:51;;;;;;;22.35;9.27;;;;;;;0.17;85.73;98236.31;5074529;28;20116;-72
2021/01/05 00:19:16;;;;;;;25.02;10.50;;;;;;;0.14;86.41;98236.63;5074029;28;20075;-72
2021/01/05 00:21:41;;;;;;;25.65;10.25;;;;;;;0.12;85.96;98237.75;5073265;28;20479;-72
2021/01/05 00:24:07;;;;;;;24.75;9.93;;;;;;;0.08;85.88;98226.59;5066353;28;20024;-72
2021/01/05 00:26:37;;;;;;;24.98;10.05;;;;;;;0.13;86.58;98237.63;5078249;28;20029;-71
2021/01/05 00:29:03;;;;;;;25.73;10.13;;;;;;;0.19;86.68;98246.81;5074673;28;20038;-71
2021/01/05 00:31:29;;;;;;;22.88;10.20;;;;;;;0.17;86.56;98241.63;5075964;28;20028;-72
2021/01/05 00:33:54;;;;;;;24.27;10.50;;;;;;;0.22;86.48;98250.00;5074756;28;20033;-71
2021/01/05 00:36:19;;;;;;;21.65;9.20;;;;;;;0.16;86.53;98245.28;5073977;28;20046;-71
2021/01/05 00:38:44;;;;;;;23.88;9.82;;;;;;;0.21;86.57;98251.00;5072655;28;20031;-72
2021/01/05 00:41:10;;;;;;;22.33;10.20;;;;;;;0.14;86.47;98231.31;5073680;28;20068;-71
2021/01/05 00:43:35;;;;;;;21.38;9.52;;;;;;;0.26;85.72;98255.00;5074979;28;20442;-72
2021/01/05 00:46:01;;;;;;;20.55;8.68;;;;;;;0.28;86.17;98253.03;5074456;28;20029;-71
2021/01/05 00:48:26;;;;;;;23.05;10.30;;;;;;;0.15;86.22;98237.44;5074786;28;20024;-71
2021/01/05 00:50:51;;;;;;;20.90;9.50;;;;;;;0.25;86.42;98250.69;5076037;28;20553;-71
2021/01/05 00:53:16;;;;;;;24.30;10.07;;;;;;;0.21;86.84;98261.63;5076079;28;20025;-71
2021/01/05 00:55:42;;;;;;;27.00;10.20;;;;;;;0.34;86.13;98257.75;5075008;28;20046;-71
2021/01/05 00:58:07;;;;;;;25.05;10.90;;;;;;;0.29;86.20;98263.53;5076101;28;20031;-71
2021/01/05 01:00:33;;;;;;;23.60;10.90;;;;;;;0.25;86.44;98259.50;5075432;28;20521;-71
2021/01/05 01:02:59;;;;;;;24.23;10.57;;;;;;;0.08;86.24;98237.22;5074372;28;20561;-71
2021/01/05 01:05:24;;;;;;;25.77;10.93;;;;;;;0.23;86.18;98264.13;5073427;28;20095;-71
2021/01/05 01:07:49;;;;;;;27.13;11.23;;;;;;;0.27;86.59;98256.69;5074014;28;20057;-71
2021/01/05 01:10:15;;;;;;;27.80;11.32;;;;;;;0.26;86.94;98265.66;5073887;28;20024;-71
2021/01/05 01:12:41;;;;;;;25.23;11.02;;;;;;;0.17;86.76;98244.28;5068856;28;20032;-71
2021/01/05 01:15:08;;;;;;;27.15;10.77;;;;;;;0.11;87.05;98234.28;5073623;28;20025;-71
2021/01/05 01:17:33;;;;;;;22.73;10.15;;;;;;;0.36;86.85;98258.44;5074383;28;20032;-72
2021/01/05 01:19:59;;;;;;;25.48;10.80;;;;;;;0.36;86.99;98255.78;5073856;28;20031;-72
2021/01/05 01:22:24;;;;;;;29.45;12.77;;;;;;;0.35;87.41;98254.13;5073453;28;20084;-72
2021/01/05 01:24:50;;;;;;;24.85;10.68;;;;;;;0.38;86.98;98259.13;5073031;28;20039;-71
2021/01/05 01:27:16;;;;;;;24.73;10.90;;;;;;;0.35;87.18;98248.78;5073067;28;20478;-71
2021/01/05 01:29:41;;;;;;;26.90;12.55;;;;;;;0.34;87.48;98247.09;5073741;28;20024;-71
2021/01/05 01:32:06;;;;;;;27.52;11.30;;;;;;;0.39;87.26;98252.81;5073555;28;20025;-71
2021/01/05 01:34:32;;;;;;;32.78;12.70;;;;;;;0.23;87.51;98229.53;5069257;28;20114;-71
2021/01/05 01:37:00;;;;;;;29.35;13.10;;;;;;;0.30;87.97;98249.25;5065990;28;20037;-72
2021/01/05 01:39:27;;;;;;;40.73;14.90;;;;;;;0.31;88.17;98253.56;5070846;28;20035;-72
2021/01/05 01:41:52;;;;;;;28.90;12.20;;;;;;;0.36;86.75;98259.25;5073626;28;20032;-72
2021/01/05 01:44:20;;;;;;;28.92;11.95;;;;;;;0.48;86.88;98261.72;5073291;28;20386;-71
2021/01/05 01:46:47;;;;;;;25.00;11.50;;;;;;;0.62;85.80;98255.84;5071432;28;20458;-71
2021/01/05 01:49:13;;;;;;;25.48;11.10;;;;;;;0.52;85.69;98260.41;5072072;28;20039;-72
2021/01/05 01:51:41;;;;;;;23.67;10.63;;;;;;;0.42;86.57;98257.84;5072470;28;20103;-71
2021/01/05 01:54:18;;;;;;;22.65;10.73;;;;;;;0.38;86.84;98259.13;5069989;28;20032;-71
2021/01/05 01:57:13;;;;;;;28.77;11.77;;;;;;;0.36;87.20;98264.59;5072437;28;20032;-71
2021/01/05 01:59:56;;;;;;;30.83;11.68;;;;;;;0.34;87.25;98255.94;5072968;28;20030;-70
2021/01/05 02:02:35;;;;;;;29.90;11.88;;;;;;;0.31;87.48;98256.22;5072074;28;20149;-71
2021/01/05 02:05:05;;;;;;;26.30;11.83;;;;;;;0.31;87.77;98260.72;5066598;28;20024;-71
2021/01/05 02:08:14;;;;;;;26.10;11.73;;;;;;;0.22;87.76;98243.84;5073419;28;20513;-71
2021/01/05 02:10:46;;;;;;;26.20;11.68;;;;;;;0.31;87.67;98255.41;5077174;28;20107;-71
2021/01/05 02:13:39;;;;;;;26.88;11.63;;;;;;;0.31;87.64;98260.72;5072644;28;20028;-71
2021/01/05 02:16:18;;;;;;;27.35;12.18;;;;;;;0.32;87.68;98254.44;5075767;28;20035;-70
2021/01/05 02:18:48;;;;;;;31.15;11.90;;;;;;;0.39;87.67;98250.16;5075146;28;20505;-71
2021/01/05 02:21:26;;;;;;;28.58;11.70;;;;;;;0.41;87.66;98261.47;5074267;28;20037;-71
2021/01/05 02:24:04;;;;;;;27.95;11.95;;;;;;;0.40;87.30;98257.97;5065482;28;20040;-71
2021/01/05 02:26:38;;;;;;;28.67;11.35;;;;;;;0.35;87.31;98257.59;5071359;28;20024;-72
2021/01/05 02:29:08;;;;;;;25.27;11.45;;;;;;;0.24;87.58;98235.69;5058857;28;20029;-72
2021/01/05 02:31:39;;;;;;;32.83;11.98;;;;;;;0.37;87.58;98250.31;5070534;28;20028;-72
2021/01/05 02:34:32;;;;;;;27.20;12.73;;;;;;;0.37;88.02;98241.50;5071842;28;20121;-72
2021/01/05 02:37:26;;;;;;;25.50;12.60;;;;;;;0.30;88.16;98237.78;5071477;28;20029;-71
2021/01/05 02:40:07;;;;;;;27.42;12.00;;;;;;;0.30;88.25;98245.75;5052630;28;20033;-72
2021/01/05 02:42:53;;;;;;;25.70;12.27;;;;;;;0.29;88.57;98238.75;5066711;28;20025;-72
2021/01/05 02:46:26;;;;;;;27.25;12.10;;;;;;;0.30;88.51;98240.44;5061634;28;20036;-72
2021/01/05 02:49:22;;;;;;;27.33;12.07;;;;;;;0.37;88.54;98237.00;5003042;28;20432;-72
2021/01/05 02:51:59;;;;;;;29.58;12.48;;;;;;;0.33;88.71;98240.13;5071181;28;20498;-72
2021/01/05 02:55:06;;;;;;;28.55;12.02;;;;;;;0.36;88.47;98237.16;5070463;28;20029;-72
2021/01/05 02:57:53;;;;;;;26.27;11.95;;;;;;;0.40;88.52;98227.88;5072172;28;20028;-72
2021/01/05 03:00:24;;;;;;;27.83;12.25;;;;;;;0.39;88.34;98235.03;5070990;28;20031;-72
2021/01/05 03:03:38;;;;;;;23.42;11.40;;;;;;;0.35;88.87;98227.50;5071023;28;20025;-72
2021/01/05 03:06:17;;;;;;;27.63;11.48;;;;;;;0.28;88.87;98213.97;5071621;28;20024;-72
2021/01/05 03:08:56;;;;;;;;;;;;;;;0.36;89.00;98229.16;5081007;28;20054;-72
2021/01/05 03:11:38;;;;;;;28.85;11.40;;;;;;;0.34;89.29;98232.00;5089891;28;19998;-72
2021/01/05 03:14:48;;;;;;;38.42;11.57;;;;;;;0.40;88.69;98225.22;5075684;28;20032;-72
2021/01/05 03:17:24;;;;;;;24.35;11.93;;;;;;;0.35;88.91;98223.00;5072151;28;20475;-72
2021/01/05 03:20:02;;;;;;;24.30;12.35;;;;;;;0.39;88.54;98223.53;5071250;28;20119;-72
2021/01/05 03:22:31;;;;;;;25.67;11.52;;;;;;;0.30;89.02;98222.63;5072314;28;20036;-72
2021/01/05 03:24:59;;;;;;;26.10;11.15;;;;;;;0.35;88.88;98232.81;5071591;28;20402;-72
2021/01/05 03:27:25;;;;;;;26.67;12.02;;;;;;;0.35;89.19;98233.66;5071311;28;20028;-71
2021/01/05 03:29:54;;;;;;;29.30;11.85;;;;;;;0.34;89.13;98225.81;5073069;28;20028;-72
2021/01/05 03:32:19;;;;;;;25.35;11.50;;;;;;;0.17;88.92;98187.59;5073797;28;20497;-72
2021/01/05 03:34:45;;;;;;;27.95;12.30;;;;;;;0.40;88.66;98231.38;5076055;28;20064;-71
2021/01/05 03:37:10;;;;;;;31.58;12.07;;;;;;;0.34;88.90;98224.00;5075950;28;20029;-72
2021/01/05 03:39:36;;;;;;;25.08;11.73;;;;;;;0.39;88.77;98224.41;5074187;28;20477;-73
2021/01/05 03:42:01;;;;;;;22.73;11.27;;;;;;;0.26;88.87;98204.47;5072413;28;20064;-72
2021/01/05 03:44:27;;;;;;;24.17;11.48;;;;;;;0.42;89.20;98233.91;5075277;28;20110;-72
2021/01/05 03:46:52;;;;;;;26.30;11.57;;;;;;;0.42;89.00;98236.56;5075088;28;20036;-71
2021/01/05 03:49:20;;;;;;;30.85;11.57;;;;;;;0.39;89.23;98235.03;5095859;28;20510;-71
2021/01/05 03:51:45;;;;;;;24.88;10.60;;;;;;;0.34;88.84;98217.84;5075136;28;20024;-71
2021/01/05 03:54:11;;;;;;;22.77;11.00;;;;;;;0.43;89.18;98235.56;5054909;28;20036;-72
2021/01/05 03:56:37;;;;;;;21.95;10.75;;;;;;;0.43;89.18;98236.38;5055310;28;20035;-72
2021/01/05 03:59:02;;;;;;;23.00;11.30;;;;;;;0.40;88.90;98222.56;5060457;28;20032;-72
2021/01/05 04:01:27;;;;;;;22.20;10.50;;;;;;;0.35;89.28;98220.34;5073166;28;20029;-72
2021/01/05 04:03:52;;;;;;;22.45;11.40;;;;;;;0.32;89.38;98218.00;5075587;28;20055;-73
2021/01/05 04:06:18;;;;;;;25.95;12.00;;;;;;;0.42;89.24;98231.22;5074485;28;20107;-72
2021/01/05 04:08:43;;;;;;;25.92;11.18;;;;;;;0.28;89.06;98208.66;5075208;28;20078;-73
2021/01/05 04:11:08;;;;;;;21.88;10.65;;;;;;;0.38;89.37;98221.88;5070689;28;20031;-71
2021/01/05 04:13:33;;;;;;;24.90;11.43;;;;;;;0.38;89.41;98217.38;5074061;28;20036;-71
2021/01/05 04:15:59;;;;;;;22.70;10.43;;;;;;;0.24;89.35;98193.13;5072675;28;20406;-72
2021/01/05 04:18:24;;;;;;;22.05;10.80;;;;;;;0.42;89.25;98223.25;5075066;28;20069;-71
2021/01/05 04:20:50;;;;;;;23.20;11.07;;;;;;;0.36;89.19;98215.88;5069029;28;20059;-72
2021/01/05 04:23:15;;;;;;;24.45;10.77;;;;;;;0.37;89.18;98214.88;5074796;28;20032;-72
2021/01/05 04:25:40;;;;;;;23.50;10.93;;;;;;;0.41;89.16;98222.38;5074372;28;20399;-72
2021/01/05 04:28:06;;;;;;;33.22;11.45;;;;;;;0.53;89.23;98230.16;5070739;28;20028;-72
2021/01/05 04:30:34;;;;;;;21.00;10.52;;;;;;;0.38;89.23;98219.22;5074953;28;20028;-71
2021/01/05 04:33:09;;;;;;;24.83;10.10;;;;;;;0.37;89.21;98215.72;5072762;28;20102;-71
2021/01/05 04:35:35;;;;;;;21.55;10.35;;;;;;;0.32;89.37;98212.69;5074284;28;20070;-72
2021/01/05 04:38:00;;;;;;;20.25;9.95;;;;;;;0.41;89.35;98216.25;5074206;28;20421;-72
2021/01/05 04:40:37;;;;;;;20.65;10.40;;;;;;;0.48;89.64;98227.13;5074124;28;20063;-72
2021/01/05 04:43:14;;;;;;;21.70;10.93;;;;;;;0.43;89.55;98235.56;5069284;28;20031;-72
2021/01/05 04:46:06;;;;;;;21.17;10.30;;;;;;;0.47;88.98;98236.06;5074551;28;20046;-72
2021/01/05 04:48:51;;;;;;;22.23;10.05;;;;;;;0.40;89.13;98236.69;5073035;28;20029;-72
2021/01/05 04:51:44;;;;;;;21.15;9.57;;;;;;;0.45;89.07;98246.88;5072693;28;20031;-72
2021/01/05 04:54:18;;;;;;;21.35;9.48;;;;;;;0.54;89.20;98237.97;5066116;28;20032;-78
2021/01/05 04:57:09;;;;;;;21.00;9.95;;;;;;;0.55;89.08;98254.78;5072647;28;20036;-73
2021/01/05 04:59:50;;;;;;;20.15;9.43;;;;;;;0.47;89.25;98246.72;5076035;28;20070;-73
2021/01/05 05:02:24;;;;;;;20.15;10.02;;;;;;;0.49;88.80;98245.59;5072324;28;20028;-73
2021/01/05 05:05:28;;;;;;;19.63;9.45;;;;;;;0.55;88.83;98233.47;5072798;28;20021;-72
2021/01/05 05:08:24;;;;;;;23.08;10.10;;;;;;;0.50;89.06;98249.06;5073562;28;20024;-71
2021/01/05 05:11:26;;;;;;;21.95;9.70;;;;;;;0.50;89.15;98241.09;5066208;28;20028;-76
2021/01/05 05:17:28;;;;;;;20.33;9.00;;;;;;;0.39;88.84;98210.22;5087504;28;20043;-76
2021/01/05 05:20:21;;;;;;;24.33;9.90;;;;;;;0.58;88.84;98252.66;5072977;28;20024;-71
2021/01/05 05:23:14;;;;;;;19.90;9.82;;;;;;;0.52;88.81;98253.25;5072986;28;20355;-74
2021/01/05 05:25:48;;;;;;;21.67;10.13;;;;;;;0.47;88.86;98244.88;5064428;28;20034;-75
2021/01/05 05:28:29;;;;;;;21.02;9.65;;;;;;;0.49;88.80;98250.91;5072315;28;20020;-74
2021/01/05 05:30:55;;;;;;;22.58;10.55;;;;;;;0.51;89.00;98248.09;5071959;28;20027;-68
2021/01/05 05:33:26;;;;;;;20.75;9.88;;;;;;;0.51;88.56;98259.56;5068939;28;20028;-74
2021/01/05 05:36:07;;;;;;;19.02;9.43;;;;;;;0.48;88.79;98265.22;5071477;28;20124;-72
2021/01/05 05:39:01;;;;;;;22.67;10.25;;;;;;;0.50;89.16;98257.06;5086521;28;20020;-81
2021/01/05 05:41:26;;;;;;;20.55;9.73;;;;;;;0.47;88.85;98263.50;5075170;28;20382;-75
2021/01/05 05:44:22;;;;;;;19.05;9.60;;;;;;;0.46;89.06;98272.50;5073644;28;20025;-73
2021/01/05 05:47:01;;;;;;;23.10;9.52;;;;;;;0.31;89.23;98248.25;5066638;28;20043;-74
2021/01/05 05:49:35;;;;;;;20.73;9.57;;;;;;;0.35;89.32;98249.63;5073640;28;20028;-73
2021/01/05 05:52:04;;;;;;;19.35;10.45;;;;;;;0.47;89.19;98268.00;5073726;28;20051;-76
2021/01/05 05:54:33;;;;;;;23.95;9.48;;;;;;;0.50;89.17;98271.22;5054081;28;20107;-77
2021/01/05 05:57:21;;;;;;;18.90;9.50;;;;;;;0.53;89.37;98267.41;5057560;28;20036;-77
2021/01/05 05:59:56;;;;;;;21.02;9.27;;;;;;;0.44;89.06;98263.81;5054034;28;20031;-74
2021/01/05 06:02:23;;;;;;;20.25;9.85;;;;;;;0.37;89.36;98247.66;5070094;28;20024;-73
2021/01/05 06:04:52;;;;;;;22.20;9.88;;;;;;;0.36;89.49;98261.94;5072612;28;20035;-73
2021/01/05 06:07:18;;;;;;;21.33;9.68;;;;;;;0.34;89.22;98249.75;5074306;28;20033;-80
2021/01/05 06:09:43;;;;;;;17.98;9.40;;;;;;;0.35;89.29;98259.44;5076526;28;20031;-82
2021/01/05 06:12:10;;;;;;;22.23;9.93;;;;;;;0.37;89.30;98265.44;5080672;28;20013;-81
2021/01/05 06:14:35;;;;;;;19.60;9.30;;;;;;;0.37;89.11;98257.47;5066483;28;20032;-78
2021/01/05 06:17:00;;;;;;;21.20;9.82;;;;;;;0.31;89.05;98253.56;5068921;28;20021;-81
2021/01/05 06:19:26;;;;;;;19.67;9.40;;;;;;;0.53;89.35;98288.72;5072159;28;20023;-75
2021/01/05 06:21:51;;;;;;;21.65;9.38;;;;;;;0.49;89.34;98282.00;5081208;28;20101;-79
2021/01/05 06:24:16;;;;;;;21.17;9.10;;;;;;;0.37;89.25;98260.13;5078358;28;20021;-80
2021/01/05 06:26:41;;;;;;;20.48;9.32;;;;;;;0.50;89.44;98276.53;5076013;28;20030;-79
2021/01/05 06:29:07;;;;;;;20.02;9.45;;;;;;;0.47;89.12;98278.66;5077033;28;20021;-74
2021/01/05 06:31:32;;;;;;;19.13;9.30;;;;;;;0.53;89.24;98299.34;5073852;28;20016;-78
2021/01/05 06:33:57;;;;;;;17.75;9.23;;;;;;;0.41;89.24;98280.09;5073582;28;20029;-71
2021/01/05 06:36:23;;;;;;;16.95;9.25;;;;;;;0.41;89.56;98296.06;5070524;28;20173;-69
2021/01/05 06:38:49;;;;;;;18.30;9.27;;;;;;;0.46;89.40;98293.78;5072351;28;20395;-81
2021/01/05 06:41:16;;;;;;;21.92;9.80;;;;;;;0.56;89.57;98313.19;5072414;28;20024;-78
2021/01/05 06:43:41;;;;;;;20.02;10.27;;;;;;;0.49;89.15;98303.31;5078749;28;20020;-78
2021/01/05 06:46:09;;;;;;;18.40;9.07;;;;;;;0.58;89.14;98319.22;5079517;28;20048;-78
2021/01/05 06:48:35;;;;;;;17.70;9.18;;;;;;;0.53;89.49;98307.34;5064444;28;20549;-77
2021/01/05 06:51:01;;;;;;;17.05;9.38;;;;;;;0.47;89.22;98289.31;5083383;28;20115;-77
2021/01/05 06:53:26;;;;;;;17.77;8.70;;;;;;;0.56;89.05;98294.56;5085906;28;20111;-76
2021/01/05 06:55:52;;;;;;;18.65;9.15;;;;;;;0.61;88.94;98308.25;5079441;28;20093;-76
2021/01/05 06:58:17;;;;;;;17.65;8.95;;;;;;;0.51;89.00;98277.38;5074930;28;20069;-76
2021/01/05 07:00:43;;;;;;;19.50;9.75;;;;;;;0.55;88.73;98300.03;5082364;28;20089;-77
2021/01/05 07:03:08;;;;;;;22.63;8.57;;;;;;;0.59;88.87;98298.75;5085006;28;20017;-80
2021/01/05 07:05:33;;;;;;;20.52;8.82;;;;;;;0.56;88.79;98294.56;5076133;28;20032;-76
2021/01/05 07:07:58;;;;;;;19.40;9.43;;;;;;;0.76;88.69;98310.34;5062037;28;20019;-73
2021/01/05 07:10:26;;;;;;;20.10;8.88;;;;;;;0.75;88.53;98311.34;5094865;28;20082;-77
2021/01/05 07:12:51;;;;;;;19.67;9.00;;;;;;;0.56;88.60;98291.91;5094274;28;20495;-80
2021/01/05 07:15:19;;;;;;;16.67;8.43;;;;;;;0.67;88.86;98316.63;5073545;28;20051;-73
2021/01/05 07:17:45;;;;;;;20.48;9.13;;;;;;;0.73;89.08;98323.97;5087362;28;20024;-73
2021/01/05 07:20:12;;;;;;;18.15;9.93;;;;;;;0.74;89.01;98329.16;5076778;28;20035;-77
2021/01/05 07:22:38;;;;;;;18.65;9.10;;;;;;;0.70;88.87;98321.63;5073056;28;20028;-77
2021/01/05 07:25:05;;;;;;;16.95;8.15;;;;;;;0.69;88.54;98328.78;5067485;28;20123;-76
2021/01/05 07:27:30;;;;;;;19.17;9.13;;;;;;;0.81;88.85;98342.69;5069167;28;20051;-74
2021/01/05 07:29:56;;;;;;;15.45;8.18;;;;;;;0.85;88.83;98330.75;5069772;28;20024;-69
2021/01/05 07:32:22;;;;;;;18.67;8.57;;;;;;;0.81;88.54;98330.22;5073919;28;20040;-80
2021/01/05 07:34:48;;;;;;;20.80;9.23;;;;;;;0.72;88.75;98320.50;5067948;28;20113;-77
2021/01/05 07:37:20;;;;;;;22.75;9.95;;;;;;;0.86;88.40;98341.25;5081188;28;20343;-78
2021/01/05 07:40:06;;;;;;;20.25;8.55;;;;;;;0.88;88.48;98344.59;5086040;28;20029;-84
2021/01/05 07:42:33;;;;;;;21.63;9.40;;;;;;;0.70;88.70;98305.66;5077652;28;20042;-85
2021/01/05 07:45:08;;;;;;;17.42;9.07;;;;;;;0.76;88.49;98323.66;5055328;28;20061;-72
2021/01/05 07:47:35;;;;;;;20.08;9.45;;;;;;;0.83;88.53;98327.41;5072656;28;20690;-78
2021/01/05 07:50:02;;;;;;;18.02;9.30;;;;;;;0.85;88.32;98331.59;5074769;28;20051;-86
2021/01/05 07:52:39;;;;;;;16.48;9.18;;;;;;;0.87;88.49;98339.44;5087191;28;20465;-77
2021/01/05 07:55:22;;;;;;;18.02;9.25;;;;;;;0.87;88.03;98347.41;5083356;28;20025;-81
2021/01/05 07:57:49;;;;;;;20.50;8.65;;;;;;;0.80;88.61;98341.03;5065203;28;20032;-81
2021/01/05 08:00:17;;;;;;;21.23;9.02;;;;;;;0.95;88.52;98347.50;5065608;28;20371;-70
2021/01/05 08:02:43;;;;;;;14.73;8.40;;;;;;;0.94;88.28;98348.47;5071040;28;20024;-70
2021/01/05 08:05:11;;;;;;;17.77;8.25;;;;;;;1.06;88.15;98344.56;5069597;28;20678;-70
2021/01/05 08:07:37;;;;;;;14.38;8.13;;;;;;;1.03;88.09;98342.22;5078202;28;20020;-70
2021/01/05 08:10:04;;;;;;;22.23;9.18;;;;;;;0.88;88.18;98328.59;5077834;28;20036;-72
2021/01/05 08:12:29;;;;;;;17.60;9.82;;;;;;;0.92;88.90;98347.81;5071260;28;20016;-70
2021/01/05 08:14:54;;;;;;;19.63;8.75;;;;;;;0.87;88.90;98334.09;5064577;28;20432;-70
2021/01/05 08:17:20;;;;;;;19.42;9.20;;;;;;;0.94;88.74;98351.13;5066606;28;20024;-71
2021/01/05 08:19:46;;;;;;;20.23;8.60;;;;;;;0.82;88.76;98337.22;5067898;28;20024;-77
2021/01/05 08:22:12;;;;;;;18.20;8.98;;;;;;;0.99;89.36;98348.84;5083193;28;20382;-76
2021/01/05 08:24:38;;;;;;;15.80;8.68;;;;;;;0.86;88.98;98327.94;5093526;28;20020;-73
2021/01/05 08:27:06;;;;;;;19.73;8.95;;;;;;;1.00;89.19;98355.84;5090117;28;20119;-74
2021/01/05 08:29:32;;;;;;;19.03;9.00;;;;;;;1.07;88.57;98346.28;5064258;28;20103;-76
2021/01/05 08:31:57;;;;;;;19.58;8.32;;;;;;;0.97;88.72;98329.53;5096377;28;20273;-77
2021/01/05 08:34:22;;;;;;;19.88;8.98;;;;;;;1.08;88.69;98350.59;5081566;28;20021;-75
2021/01/05 08:36:48;;;;;;;20.73;8.48;;;;;;;0.98;88.79;98331.19;5075403;28;20028;-78
2021/01/05 08:39:13;;;;;;;15.27;8.40;;;;;;;1.03;88.75;98341.41;5077793;28;20124;-77
2021/01/05 08:41:41;;;;;;;16.17;8.95;;;;;;;1.05;88.47;98347.41;5077905;28;20052;-80
2021/01/05 08:44:07;;;;;;;18.45;8.88;;;;;;;0.78;88.97;98292.41;5077286;28;20024;-80
2021/01/05 08:46:32;;;;;;;20.02;8.63;;;;;;;0.98;88.95;98315.22;5081073;28;20034;-72
2021/01/05 08:48:57;;;;;;;18.45;8.88;;;;;;;1.01;88.73;98309.56;5078670;28;20056;-77
2021/01/05 08:51:23;;;;;;;18.70;8.88;;;;;;;1.04;88.64;98313.75;5076179;28;20032;-82
2021/01/05 08:53:49;;;;;;;22.17;9.57;;;;;;;1.08;88.82;98318.63;5075336;28;20063;-73
2021/01/05 08:56:16;;;;;;;22.58;9.68;;;;;;;1.28;88.75;98342.41;5075530;28;20036;-74
2021/01/05 08:58:41;;;;;;;20.85;9.20;;;;;;;1.23;88.40;98334.03;5075819;28;20041;-76
2021/01/05 09:01:07;;;;;;;20.08;9.30;;;;;;;1.27;88.62;98330.09;5075071;28;20028;-77
2021/01/05 09:03:32;;;;;;;19.85;9.70;;;;;;;1.22;88.45;98327.03;5087864;28;20021;-79
2021/01/05 09:05:57;;;;;;;19.10;9.00;;;;;;;1.20;88.25;98310.38;5067195;28;20028;-71
2021/01/05 09:08:26;;;;;;;17.52;9.05;;;;;;;1.22;87.88;98317.22;5074688;28;20032;-75
2021/01/05 09:10:51;;;;;;;19.38;9.32;;;;;;;1.36;88.27;98339.78;5072604;28;20043;-68
2021/01/05 09:13:16;;;;;;;18.30;8.65;;;;;;;1.42;88.29;98341.84;5074597;28;20036;-80
2021/01/05 09:15:43;;;;;;;15.38;8.70;;;;;;;1.39;87.87;98336.84;5073413;28;20458;-79
2021/01/05 09:18:08;;;;;;;16.55;8.68;;;;;;;1.32;87.88;98325.13;5074963;28;20024;-74
2021/01/05 09:20:34;;;;;;;16.65;7.90;;;;;;;1.41;87.63;98329.50;5074951;28;20418;-75
2021/01/05 09:22:59;;;;;;;17.88;9.07;;;;;;;1.44;87.40;98318.53;5073550;28;20376;-77
2021/01/05 09:25:29;;;;;;;18.60;8.75;;;;;;;1.63;87.24;98329.97;5078516;28;20031;-79
2021/01/05 09:27:54;;;;;;;18.95;8.60;;;;;;;1.59;87.07;98325.94;5055945;28;20036;-67
2021/01/05 09:30:22;;;;;;;16.70;8.82;;;;;;;1.45;87.26;98320.22;5072027;28;20036;-75
2021/01/05 09:32:47;;;;;;;17.27;8.57;;;;;;;1.35;87.09;98311.47;5075907;28;20041;-74
2021/01/05 09:35:13;;;;;;;17.33;8.57;;;;;;;1.57;87.62;98336.75;5072578;28;20055;-70
2021/01/05 09:37:40;;;;;;;17.90;8.23;;;;;;;1.53;87.56;98336.25;5075296;28;20109;-75
2021/01/05 09:40:06;;;;;;;19.20;8.70;;;;;;;1.59;87.54;98342.78;5073841;28;20139;-75
2021/01/05 09:42:31;;;;;;;20.05;8.85;;;;;;;1.44;87.56;98329.22;5069954;28;20043;-75
2021/01/05 09:44:57;;;;;;;18.25;8.63;;;;;;;1.48;87.17;98327.06;5072971;28;20501;-77
2021/01/05 09:47:23;;;;;;;17.20;8.65;;;;;;;1.57;86.86;98342.09;5074140;28;20468;-78
2021/01/05 09:49:49;;;;;;;20.25;8.57;;;;;;;1.59;87.27;98348.09;5075635;28;20078;-74
2021/01/05 09:52:15;;;;;;;17.52;8.80;;;;;;;1.70;87.13;98347.00;5074068;28;20434;-79
2021/01/05 09:54:44;;;;;;;18.60;8.55;;;;;;;1.62;86.79;98328.28;5073375;28;20028;-75
2021/01/05 09:57:10;;;;;;;17.00;8.38;;;;;;;1.75;86.66;98334.03;5070220;28;20020;-66
2021/01/05 09:59:38;;;;;;;16.02;7.80;;;;;;;1.69;86.36;98316.00;5064789;28;20487;-68
2021/01/05 10:02:04;;;;;;;19.00;8.73;;;;;;;2.00;85.71;98335.00;5069658;28;20039;-74
2021/01/05 10:04:29;;;;;;;17.15;8.40;;;;;;;2.04;85.74;98332.81;5080221;28;20015;-75
2021/01/05 10:06:55;;;;;;;17.83;8.45;;;;;;;2.05;85.39;98338.00;5074350;28;20024;-75
2021/01/05 10:09:20;;;;;;;16.38;8.63;;;;;;;2.18;85.54;98330.38;5070233;28;20021;-71
2021/01/05 10:11:45;;;;;;;14.45;8.32;;;;;;;2.03;85.55;98326.66;5072009;28;20028;-79
2021/01/05 10:14:14;;;;;;;17.58;8.65;;;;;;;2.02;85.47;98326.81;5070627;28;20460;-74
2021/01/05 10:16:39;;;;;;;15.20;8.00;;;;;;;2.10;85.57;98326.88;5072817;28;20020;-78
2021/01/05 10:19:05;;;;;;;23.55;8.80;;;;;;;2.10;85.76;98348.22;5072693;28;20028;-77
2021/01/05 10:21:41;;;;;;;17.85;8.45;;;;;;;2.09;85.50;98339.34;5071850;28;20020;-69
2021/01/05 10:24:09;;;;;;;15.60;7.95;;;;;;;2.12;85.82;98346.19;5074019;28;20016;-75
2021/01/05 10:26:35;;;;;;;15.63;8.65;;;;;;;1.97;85.63;98314.81;5073376;28;20020;-80
2021/01/05 10:29:02;;;;;;;16.52;8.63;;;;;;;2.11;85.66;98331.19;5072076;28;20482;-69
2021/01/05 10:31:35;;;;;;;17.30;8.50;;;;;;;1.93;85.57;98320.63;5074222;28;20028;-78
2021/01/05 10:34:01;;;;;;;15.75;8.05;;;;;;;2.03;85.66;98332.00;5080918;28;20017;-76
2021/01/05 10:36:26;;;;;;;19.40;9.32;;;;;;;2.05;85.97;98342.53;5075389;28;20040;-68
2021/01/05 10:38:51;;;;;;;16.30;8.88;;;;;;;1.95;86.00;98321.28;5064855;28;20031;-74
2021/01/05 10:41:17;;;;;;;18.10;9.13;;;;;;;2.09;85.65;98335.84;5061695;28;20029;-73
2021/01/05 10:43:44;;;;;;;18.20;8.95;;;;;;;2.03;85.27;98315.16;5071153;28;20012;-70
2021/01/05 10:46:10;;;;;;;17.85;8.80;;;;;;;2.18;85.48;98321.56;5085766;28;20024;-74
2021/01/05 10:48:36;;;;;;;19.60;9.10;;;;;;;2.22;85.24;98319.38;5070840;28;20398;-70
2021/01/05 10:51:03;;;;;;;18.52;8.13;;;;;;;2.29;85.64;98329.25;5077714;28;20028;-71
2021/01/05 10:53:29;;;;;;;15.98;8.38;;;;;;;2.29;85.25;98325.75;5072433;28;20024;-71
2021/01/05 10:55:55;;;;;;;17.95;8.95;;;;;;;2.25;85.33;98319.88;5070430;28;20394;-74
2021/01/05 10:58:21;;;;;;;19.85;9.55;;;;;;;2.22;85.13;98293.53;5072545;28;20029;-73
2021/01/05 11:00:47;;;;;;;19.35;8.93;;;;;;;2.39;84.95;98321.94;5071596;28;20048;-69
2021/01/05 11:03:12;;;;;;;18.30;9.27;;;;;;;2.61;84.79;98316.97;5071361;28;20021;-72
2021/01/05 11:05:38;;;;;;;15.15;8.50;;;;;;;2.59;84.36;98309.13;5071932;28;20490;-68
2021/01/05 11:08:03;;;;;;;16.63;9.07;;;;;;;2.54;83.94;98310.59;5071069;28;20111;-74
2021/01/05 11:10:29;;;;;;;14.73;8.23;;;;;;;2.50;84.38;98314.63;5064071;28;20387;-75
2021/01/05 11:12:57;;;;;;;18.30;9.05;;;;;;;2.54;83.97;98318.63;5064644;28;20654;-68
2021/01/05 11:15:23;;;;;;;14.48;8.00;;;;;;;2.55;84.02;98304.28;5069546;28;20214;-70
2021/01/05 11:17:49;;;;;;;18.65;8.95;;;;;;;2.69;83.39;98306.28;5071101;28;20631;-70
2021/01/05 11:20:16;;;;;;;15.60;8.27;;;;;;;2.63;83.84;98301.63;5071644;28;20035;-70
2021/01/05 11:22:41;;;;;;;16.92;9.00;;;;;;;2.73;83.60;98298.81;5071728;28;20031;-70
2021/01/05 11:25:08;;;;;;;16.35;8.25;;;;;;;2.72;83.06;98299.78;5070221;28;20032;-70
2021/01/05 11:27:33;;;;;;;17.92;8.80;;;;;;;2.63;83.69;98309.63;5062165;28;20033;-70
2021/01/05 11:29:59;;;;;;;14.40;8.20;;;;;;;2.52;83.66;98305.44;5062939;28;20032;-70
2021/01/05 11:32:24;;;;;;;17.52;8.57;;;;;;;2.49;84.51;98299.59;5059873;28;20528;-70
2021/01/05 11:34:50;;;;;;;16.15;8.43;;;;;;;2.51;85.16;98302.94;5061337;28;20490;-71
2021/01/05 11:37:18;;;;;;;16.88;9.55;;;;;;;2.48;84.74;98303.25;5063653;28;20418;-70
2021/01/05 11:39:46;;;;;;;15.18;8.07;;;;;;;2.38;84.76;98266.03;5058381;28;20040;-70
2021/01/05 11:42:18;;;;;;;17.75;8.98;;;;;;;2.40;84.25;98290.72;5064251;28;20075;-70
2021/01/05 11:44:45;;;;;;;17.27;8.73;;;;;;;2.57;87.27;98278.25;5062778;28;20033;-69
2021/01/05 11:47:14;;;;;;;14.32;8.25;;;;;;;2.90;85.23;98284.44;5063323;28;20458;-69
2021/01/05 11:49:40;;;;;;;15.30;7.63;;;;;;;2.70;83.74;98283.09;5060630;28;20024;-69